createdAt,value
2022-12-25T00:01:23.609Z,99200.72
2022-12-25T00:03:52.035Z,99176.75
2022-12-25T00:06:19.651Z,99134.22
2022-12-25T00:08:46.847Z,99199.28
2022-12-25T00:11:17.674Z,99186.19
2022-12-25T00:13:47.485Z,99162.09
2022-12-25T00:16:19.974Z,99170.81
2022-12-25T00:18:48.111Z,99135.28
2022-12-25T00:21:15.259Z,99193.19
2022-12-25T00:23:43.112Z,99218.69
2022-12-25T00:26:17.102Z,99106.16
2022-12-25T00:28:44.667Z,99111.84
2022-12-25T00:31:15.665Z,99121.34
2022-12-25T00:33:46.727Z,99174.72
2022-12-25T00:36:16.957Z,99176.25
2022-12-25T00:38:44.535Z,99156.34
2022-12-25T00:41:18.254Z,99181.88
2022-12-25T00:43:45.534Z,99165.56
2022-12-25T00:46:14.069Z,99100.53
2022-12-25T00:48:41.762Z,99172.56
2022-12-25T00:51:12.193Z,99155.50
2022-12-25T00:53:39.616Z,99129.72
2022-12-25T00:56:07.508Z,99159.53
2022-12-25T00:58:35.505Z,99196.16
2022-12-25T01:01:04.167Z,99115.09
2022-12-25T01:03:31.616Z,99126.13
2022-12-25T01:06:02.664Z,99177.16
2022-12-25T01:08:33.395Z,99192.31
2022-12-25T01:11:04.556Z,99080.91
2022-12-25T01:13:34.637Z,99115.19
2022-12-25T01:16:10.818Z,99131.16
2022-12-25T01:18:39.307Z,99172.06
2022-12-25T01:21:09.212Z,99151.72
2022-12-25T01:23:36.981Z,99174.63
2022-12-25T01:26:10.193Z,99160.59
2022-12-25T01:28:38.504Z,99098.34
2022-12-25T01:31:12.058Z,99147.44
2022-12-25T01:33:40.932Z,99149.28
2022-12-25T01:36:25.405Z,99128.41
2022-12-25T01:38:53.929Z,99148.75
2022-12-25T01:41:25.083Z,99181.94
2022-12-25T01:44:36.221Z,99170.75
2022-12-25T01:47:05.052Z,99194.56
2022-12-25T01:49:36.338Z,99198.16
2022-12-25T01:52:10.704Z,99127.09
2022-12-25T01:54:52.929Z,99080.16
2022-12-25T01:57:26.726Z,99170.22
2022-12-25T01:59:55.217Z,99100.50
2022-12-25T02:02:22.691Z,99113.22
2022-12-25T02:05:01.897Z,99177.22
2022-12-25T02:07:32.862Z,99114.88
2022-12-25T02:09:59.880Z,99134.66
2022-12-25T02:12:32.296Z,99179.47
2022-12-25T02:15:07.005Z,99192.34
2022-12-25T02:18:26.933Z,99107.28
2022-12-25T02:21:26.628Z,99148.31
2022-12-25T02:24:17.135Z,99190.34
2022-12-25T02:27:11.302Z,99121.25
2022-12-25T02:30:11.320Z,99129.75
2022-12-25T02:33:20.613Z,99154.09
2022-12-25T02:35:53.716Z,99167.91
2022-12-25T02:38:36.881Z,99077.16
2022-12-25T02:41:16.004Z,99113.44
2022-12-25T02:44:05.081Z,99123.34
2022-12-25T02:46:52.016Z,99140.38
2022-12-25T02:49:45.643Z,99105.47
2022-12-25T02:52:37.783Z,99170.72
2022-12-25T02:55:35.779Z,99117.38
2022-12-25T02:58:36.457Z,99172.56
2022-12-25T03:01:29.343Z,99115.84
2022-12-25T03:04:20.486Z,99180.50
2022-12-25T03:07:15.552Z,99161.44
2022-12-25T03:10:27.197Z,99153.56
2022-12-25T03:13:09.798Z,99096.13
2022-12-25T03:15:56.023Z,99153.59
2022-12-25T03:18:27.745Z,99133.94
2022-12-25T03:21:14.006Z,99172.00
2022-12-25T03:24:02.251Z,99084.41
2022-12-25T03:26:48.760Z,99052.28
2022-12-25T03:29:35.687Z,99158.50
2022-12-25T03:32:36.220Z,99087.16
2022-12-25T03:35:30.816Z,99070.16
2022-12-25T03:38:49.627Z,99121.19
2022-12-25T03:41:34.866Z,99065.50
2022-12-25T03:44:59.749Z,99123.31
2022-12-25T03:47:54.540Z,99113.78
2022-12-25T03:51:14.824Z,99107.44
2022-12-25T03:54:09.356Z,99034.94
2022-12-25T03:56:57.726Z,99061.81
2022-12-25T03:59:43.597Z,99104.69
2022-12-25T04:02:29.563Z,99120.97
2022-12-25T04:05:15.509Z,99016.44
2022-12-25T04:08:00.924Z,99101.31
2022-12-25T04:10:46.284Z,99107.88
2022-12-25T04:13:32.418Z,99014.94
2022-12-25T04:16:18.402Z,99094.31
2022-12-25T04:19:04.256Z,99068.34
2022-12-25T04:21:49.467Z,99102.72
2022-12-25T04:24:35.333Z,99022.66
2022-12-25T04:27:20.666Z,99021.72
2022-12-25T04:30:06.069Z,99081.66
2022-12-25T04:32:51.552Z,99035.69
2022-12-25T04:35:36.928Z,98999.00
2022-12-25T04:38:03.804Z,99062.22
2022-12-25T04:40:30.668Z,99058.16
2022-12-25T04:42:57.584Z,99094.50
2022-12-25T04:45:24.493Z,99119.34
2022-12-25T04:47:51.512Z,99053.81
2022-12-25T04:50:18.732Z,99084.66
2022-12-25T04:52:45.665Z,99057.06
2022-12-25T04:55:12.717Z,99050.44
2022-12-25T04:57:40.265Z,99051.63
2022-12-25T05:00:08.132Z,99047.28
2022-12-25T05:02:35.167Z,99069.50
2022-12-25T05:05:02.461Z,99035.50
2022-12-25T05:07:29.586Z,99020.53
2022-12-25T05:09:56.555Z,98993.91
2022-12-25T05:12:23.680Z,99013.56
2022-12-25T05:14:50.544Z,99019.38
2022-12-25T05:17:17.469Z,98976.66
2022-12-25T05:19:44.373Z,98958.41
2022-12-25T05:22:11.251Z,98987.22
2022-12-25T05:24:38.770Z,98946.72
2022-12-25T05:27:05.646Z,98973.66
2022-12-25T05:29:32.669Z,99020.09
2022-12-25T05:31:59.563Z,98957.25
2022-12-25T05:34:26.441Z,98978.25
2022-12-25T05:36:53.416Z,98991.47
2022-12-25T05:39:20.495Z,98974.22
2022-12-25T05:41:47.371Z,98939.81
2022-12-25T05:44:14.383Z,98990.06
2022-12-25T05:46:41.360Z,98976.75
2022-12-25T05:49:08.780Z,98921.53
2022-12-25T05:51:35.828Z,98899.19
2022-12-25T05:54:02.694Z,98914.56
2022-12-25T05:56:30.008Z,98870.25
2022-12-25T05:58:57.534Z,98898.31
2022-12-25T06:01:28.774Z,98929.28
2022-12-25T06:03:57.275Z,98925.91
2022-12-25T06:06:24.324Z,98894.53
2022-12-25T06:08:55.022Z,98922.38
2022-12-25T06:11:22.300Z,98880.00
2022-12-25T06:13:52.910Z,98904.66
2022-12-25T06:16:20.642Z,98873.53
2022-12-25T06:18:52.195Z,98905.72
2022-12-25T06:21:19.194Z,98948.97
2022-12-25T06:23:46.422Z,98916.00
2022-12-25T06:26:19.552Z,98875.50
2022-12-25T06:28:47.318Z,98904.28
2022-12-25T06:31:18.883Z,98917.97
2022-12-25T06:33:46.523Z,98960.69
2022-12-25T06:36:25.781Z,98851.63
2022-12-25T06:38:53.735Z,98875.56
2022-12-25T06:41:27.048Z,98882.84
2022-12-25T06:43:58.108Z,98962.63
2022-12-25T06:46:28.146Z,98900.44
2022-12-25T06:48:59.375Z,98875.19
2022-12-25T06:51:30.801Z,98916.50
2022-12-25T06:53:59.408Z,98894.88
2022-12-25T06:56:28.335Z,98920.88
2022-12-25T06:58:59.011Z,98983.06
2022-12-25T07:01:48.027Z,98950.28
2022-12-25T07:04:23.669Z,98969.34
2022-12-25T07:06:50.569Z,98896.91
2022-12-25T07:09:17.455Z,98913.78
2022-12-25T07:11:44.739Z,98874.50
2022-12-25T07:14:24.264Z,98891.44
2022-12-25T07:16:52.050Z,98909.31
2022-12-25T07:19:19.261Z,98941.03
2022-12-25T07:21:46.365Z,98956.50
2022-12-25T07:24:22.000Z,98910.78
2022-12-25T07:26:50.945Z,98869.66
2022-12-25T07:29:19.630Z,98954.75
2022-12-25T07:31:47.323Z,98896.97
2022-12-25T07:34:14.243Z,98852.41
2022-12-25T07:36:41.096Z,98942.19
2022-12-25T07:39:10.336Z,98907.94
2022-12-25T07:41:37.381Z,98925.81
2022-12-25T07:44:14.744Z,98935.97
2022-12-25T07:46:41.849Z,98951.13
2022-12-25T07:49:09.611Z,98997.31
2022-12-25T07:51:37.022Z,99009.75
2022-12-25T07:54:04.098Z,98940.34
2022-12-25T07:56:31.155Z,98996.53
2022-12-25T07:58:58.225Z,98991.72
2022-12-25T08:01:28.519Z,98921.66
2022-12-25T08:04:00.305Z,98938.72
2022-12-25T08:06:31.666Z,99014.38
2022-12-25T08:09:06.743Z,98970.19
2022-12-25T08:11:34.002Z,98975.94
2022-12-25T08:14:01.222Z,98993.72
2022-12-25T08:16:28.306Z,99010.47
2022-12-25T08:18:55.219Z,98963.38
2022-12-25T08:21:22.436Z,99010.88
2022-12-25T08:23:49.687Z,98955.31
2022-12-25T08:26:23.032Z,98954.91
2022-12-25T08:28:51.459Z,98974.97
2022-12-25T08:31:28.117Z,99021.59
2022-12-25T08:33:58.244Z,98975.38
2022-12-25T08:36:25.433Z,98987.59
2022-12-25T08:38:58.525Z,99014.00
2022-12-25T08:41:29.775Z,99046.41
2022-12-25T08:43:56.693Z,99021.50
2022-12-25T08:46:24.207Z,98989.59
2022-12-25T08:48:51.188Z,99004.97
2022-12-25T08:51:22.152Z,99031.97
2022-12-25T08:53:51.406Z,99053.72
2022-12-25T08:56:19.606Z,99001.69
2022-12-25T08:58:47.052Z,99000.75
2022-12-25T09:01:14.614Z,99025.03
2022-12-25T09:03:42.971Z,98967.59
2022-12-25T09:06:16.345Z,99034.50
2022-12-25T09:08:48.691Z,99026.22
2022-12-25T09:11:19.293Z,99023.97
2022-12-25T09:13:48.054Z,98972.41
2022-12-25T09:16:20.294Z,99009.47
2022-12-25T09:18:47.818Z,99005.59
2022-12-25T09:21:16.657Z,99011.06
2022-12-25T09:23:44.268Z,99034.78
2022-12-25T09:26:14.926Z,99047.63
2022-12-25T09:28:48.406Z,99080.34
2022-12-25T09:31:16.154Z,99025.41
2022-12-25T09:33:43.116Z,99050.94
2022-12-25T09:36:11.466Z,99083.13
2022-12-25T09:38:38.590Z,99008.59
2022-12-25T09:41:29.603Z,99022.97
2022-12-25T09:44:21.683Z,99064.41
2022-12-25T09:46:59.291Z,99036.72
2022-12-25T09:49:49.997Z,99014.19
2022-12-25T09:52:26.334Z,99050.72
2022-12-25T09:55:21.186Z,99010.84
2022-12-25T09:57:55.931Z,99019.94
2022-12-25T10:00:27.822Z,99053.25
2022-12-25T10:03:29.437Z,99009.03
2022-12-25T10:06:25.189Z,99060.75
2022-12-25T10:09:15.954Z,99065.41
2022-12-25T10:12:10.805Z,99116.59
2022-12-25T10:15:08.110Z,99037.13
2022-12-25T10:17:59.394Z,99134.66
2022-12-25T10:20:40.688Z,99021.88
2022-12-25T10:23:18.052Z,99082.38
2022-12-25T10:25:46.214Z,99082.44
2022-12-25T10:28:21.328Z,99019.13
2022-12-25T10:30:49.979Z,99036.47
2022-12-25T10:33:17.488Z,99111.41
2022-12-25T10:35:45.443Z,99038.25
2022-12-25T10:38:18.900Z,99046.16
2022-12-25T10:41:22.075Z,99080.88
2022-12-25T10:43:57.166Z,99086.34
2022-12-25T10:46:29.550Z,99082.59
2022-12-25T10:49:00.576Z,99097.63
2022-12-25T10:51:39.617Z,99075.09
2022-12-25T10:54:30.459Z,99096.44
2022-12-25T10:57:16.294Z,99054.19
2022-12-25T10:59:49.775Z,99099.63
2022-12-25T11:02:40.768Z,99036.44
2022-12-25T11:05:14.227Z,99036.78
2022-12-25T11:07:50.980Z,99036.31
2022-12-25T11:10:44.007Z,99007.50
2022-12-25T11:13:47.481Z,98992.47
2022-12-25T11:16:26.165Z,99065.25
2022-12-25T11:18:54.954Z,98983.88
2022-12-25T11:21:26.864Z,99009.97
2022-12-25T11:24:05.212Z,98973.69
2022-12-25T11:26:53.052Z,99051.91
2022-12-25T11:29:50.207Z,98968.16
2022-12-25T11:32:30.525Z,99038.44
2022-12-25T11:34:59.492Z,98944.06
2022-12-25T11:37:48.192Z,99012.34
2022-12-25T11:40:25.515Z,99020.19
2022-12-25T11:43:12.359Z,99011.56
2022-12-25T11:45:46.289Z,99022.88
2022-12-25T11:48:31.590Z,98968.91
2022-12-25T11:51:02.398Z,99033.63
2022-12-25T11:53:48.529Z,98969.59
2022-12-25T11:56:20.569Z,98963.78
2022-12-25T11:59:00.507Z,98977.63
2022-12-25T12:01:42.872Z,98948.38
2022-12-25T12:04:43.239Z,98967.31
2022-12-25T12:07:32.090Z,98956.50
2022-12-25T12:10:47.186Z,98967.63
2022-12-25T12:13:46.742Z,98973.38
2022-12-25T12:16:13.688Z,99000.56
2022-12-25T12:18:46.564Z,98974.78
2022-12-25T12:21:27.508Z,98962.34
2022-12-25T12:24:17.989Z,98927.69
2022-12-25T12:26:47.311Z,98923.81
2022-12-25T12:29:40.049Z,98939.69
2022-12-25T12:32:43.891Z,98941.81
2022-12-25T12:35:18.939Z,98921.06
2022-12-25T12:38:14.562Z,98888.31
2022-12-25T12:40:51.984Z,98971.50
2022-12-25T12:43:52.895Z,98977.69
2022-12-25T12:46:39.881Z,98933.91
2022-12-25T12:49:35.005Z,98907.59
2022-12-25T12:52:30.600Z,98978.09
2022-12-25T12:55:16.971Z,99024.84
2022-12-25T12:57:43.912Z,98943.84
2022-12-25T13:00:21.236Z,98940.03
2022-12-25T13:03:24.569Z,98898.97
2022-12-25T13:06:14.722Z,99020.19
2022-12-25T13:09:10.804Z,98973.47
2022-12-25T13:11:43.969Z,98997.88
2022-12-25T13:14:20.310Z,98978.25
2022-12-25T13:16:51.560Z,98938.34
2022-12-25T13:19:25.930Z,98969.59
2022-12-25T13:22:00.448Z,99010.03
2022-12-25T13:24:34.282Z,98997.44
2022-12-25T13:27:02.379Z,98952.41
2022-12-25T13:29:30.716Z,98927.75
2022-12-25T13:32:03.869Z,98960.47
2022-12-25T13:34:41.467Z,98947.03
2022-12-25T13:37:16.298Z,98968.84
2022-12-25T13:40:03.553Z,98921.25
2022-12-25T13:42:34.398Z,98981.25
2022-12-25T13:45:08.174Z,98989.06
2022-12-25T13:47:40.627Z,98948.03
2022-12-25T13:50:23.536Z,98956.03
2022-12-25T13:52:52.364Z,98983.19
2022-12-25T13:55:26.410Z,98937.50
2022-12-25T13:58:04.457Z,98937.94
2022-12-25T14:00:53.181Z,98974.91
2022-12-25T14:03:42.911Z,98936.25
2022-12-25T14:06:29.462Z,98932.25
2022-12-25T14:08:58.819Z,98920.53
2022-12-25T14:11:29.161Z,98917.38
2022-12-25T14:14:06.701Z,98949.78
2022-12-25T14:16:34.895Z,98901.25
2022-12-25T14:19:03.609Z,98908.91
2022-12-25T14:21:49.224Z,98915.22
2022-12-25T14:24:17.406Z,98929.81
2022-12-25T14:26:44.728Z,98935.75
2022-12-25T14:29:18.189Z,98986.28
2022-12-25T14:31:47.740Z,98929.44
2022-12-25T14:34:21.810Z,98981.59
2022-12-25T14:36:49.549Z,98923.13
2022-12-25T14:39:47.128Z,98916.03
2022-12-25T14:42:22.227Z,98949.59
2022-12-25T14:45:24.794Z,98943.66
2022-12-25T14:48:00.872Z,98960.22
2022-12-25T14:50:41.205Z,98954.31
2022-12-25T14:53:20.893Z,98978.03
2022-12-25T14:55:54.994Z,99008.03
2022-12-25T14:58:26.780Z,98991.06
2022-12-25T15:01:00.954Z,98962.63
2022-12-25T15:03:34.837Z,98970.53
2022-12-25T15:06:03.188Z,98960.25
2022-12-25T15:08:32.434Z,98927.09
2022-12-25T15:11:02.201Z,98973.69
2022-12-25T15:13:31.015Z,98914.44
2022-12-25T15:16:09.059Z,98968.81
2022-12-25T15:18:43.539Z,99029.97
2022-12-25T15:21:25.842Z,99048.66
2022-12-25T15:23:55.167Z,98919.72
2022-12-25T15:26:22.795Z,99040.50
2022-12-25T15:28:49.960Z,99054.16
2022-12-25T15:31:25.315Z,98980.63
2022-12-25T15:33:57.506Z,98979.28
2022-12-25T15:36:26.047Z,99046.13
2022-12-25T15:38:54.105Z,99069.09
2022-12-25T15:41:46.374Z,99017.75
2022-12-25T15:44:14.252Z,99007.88
2022-12-25T15:46:41.513Z,99033.59
2022-12-25T15:49:13.876Z,98985.25
2022-12-25T15:51:42.239Z,99075.44
2022-12-25T15:54:10.004Z,99032.84
2022-12-25T15:56:53.800Z,99041.16
2022-12-25T15:59:21.958Z,99044.75
2022-12-25T16:01:55.504Z,99024.97
2022-12-25T16:04:24.440Z,99015.03
2022-12-25T16:06:52.405Z,99095.63
2022-12-25T16:09:20.532Z,99079.50
2022-12-25T16:11:49.025Z,99045.13
2022-12-25T16:14:16.332Z,99082.69
2022-12-25T16:16:43.303Z,99089.00
2022-12-25T16:19:10.245Z,99094.53
2022-12-25T16:21:44.171Z,99096.09
2022-12-25T16:24:11.879Z,99073.97
2022-12-25T16:26:38.954Z,99123.84
2022-12-25T16:29:07.536Z,99104.00
2022-12-25T16:31:39.191Z,99102.41
2022-12-25T16:34:07.743Z,99122.22
2022-12-25T16:36:35.742Z,99106.81
2022-12-25T16:39:03.928Z,99118.31
2022-12-25T16:41:30.921Z,99141.22
2022-12-25T16:43:57.854Z,99173.22
2022-12-25T16:46:24.812Z,99094.94
2022-12-25T16:48:51.941Z,99116.66
2022-12-25T16:51:21.230Z,99174.41
2022-12-25T16:53:48.528Z,99112.72
2022-12-25T16:56:20.453Z,99117.47
2022-12-25T16:58:48.152Z,99117.44
2022-12-25T17:01:18.637Z,99156.81
2022-12-25T17:03:46.741Z,99204.28
2022-12-25T17:06:23.148Z,99183.81
2022-12-25T17:08:52.297Z,99176.72
2022-12-25T17:11:24.264Z,99150.59
2022-12-25T17:13:51.274Z,99169.59
2022-12-25T17:16:22.856Z,99181.44
2022-12-25T17:18:58.630Z,99145.91
2022-12-25T17:21:26.599Z,99175.19
2022-12-25T17:24:01.231Z,99148.25
2022-12-25T17:26:30.753Z,99107.16
2022-12-25T17:28:58.191Z,99168.81
2022-12-25T17:31:25.478Z,99161.28
2022-12-25T17:33:52.527Z,99215.53
2022-12-25T17:36:21.488Z,99134.84
2022-12-25T17:38:49.082Z,99169.59
2022-12-25T17:41:18.732Z,99139.53
2022-12-25T17:43:46.664Z,99152.16
2022-12-25T17:46:15.978Z,99158.97
2022-12-25T17:48:43.261Z,99160.19
2022-12-25T17:51:16.009Z,99198.91
2022-12-25T17:53:48.644Z,99194.97
2022-12-25T17:56:17.662Z,99178.38
2022-12-25T17:58:49.237Z,99144.31
2022-12-25T18:01:17.147Z,99172.84
2022-12-25T18:03:45.727Z,99166.53
2022-12-25T18:06:17.223Z,99134.81
2022-12-25T18:08:45.970Z,99176.78
2022-12-25T18:11:17.020Z,99164.50
2022-12-25T18:13:48.388Z,99136.81
2022-12-25T18:16:16.408Z,99113.78
2022-12-25T18:18:51.119Z,99215.41
2022-12-25T18:21:21.062Z,99187.00
2022-12-25T18:23:48.649Z,99140.31
2022-12-25T18:26:15.749Z,99147.44
2022-12-25T18:28:43.901Z,99135.16
2022-12-25T18:31:23.342Z,99160.09
2022-12-25T18:33:51.701Z,99128.06
2022-12-25T18:36:23.699Z,99147.44
2022-12-25T18:38:52.687Z,99109.47
2022-12-25T18:41:21.295Z,99133.19
2022-12-25T18:43:52.916Z,99088.84
2022-12-25T18:46:23.859Z,99104.66
2022-12-25T18:48:51.630Z,99135.50
2022-12-25T18:51:18.720Z,99092.41
2022-12-25T18:53:45.912Z,99109.41
2022-12-25T18:56:15.860Z,99137.03
2022-12-25T18:58:43.487Z,99119.63
2022-12-25T19:01:17.515Z,99145.81
2022-12-25T19:03:46.115Z,99067.09
2022-12-25T19:06:26.466Z,99160.56
2022-12-25T19:08:54.626Z,99084.91
2022-12-25T19:11:22.830Z,99132.84
2022-12-25T19:13:50.225Z,99157.44
2022-12-25T19:16:17.818Z,99094.13
2022-12-25T19:18:45.915Z,99101.22
2022-12-25T19:21:12.935Z,99067.97
2022-12-25T19:23:41.051Z,99183.53
2022-12-25T19:26:10.362Z,99128.19
2022-12-25T19:28:38.691Z,99158.69
2022-12-25T19:31:07.911Z,99074.41
2022-12-25T19:33:38.344Z,99053.75
2022-12-25T19:36:16.303Z,99038.81
2022-12-25T19:38:44.378Z,99130.88
2022-12-25T19:41:18.137Z,99185.19
2022-12-25T19:43:49.966Z,99022.97
2022-12-25T19:46:32.170Z,99096.34
2022-12-25T19:49:04.235Z,99057.28
2022-12-25T19:51:36.253Z,99091.31
2022-12-25T19:54:05.337Z,99064.53
2022-12-25T19:56:33.722Z,99086.50
2022-12-25T19:59:01.164Z,99165.94
2022-12-25T20:01:30.087Z,99067.09
2022-12-25T20:03:57.595Z,99100.19
2022-12-25T20:06:29.819Z,99109.34
2022-12-25T20:09:08.927Z,99108.91
2022-12-25T20:11:37.703Z,99124.84
2022-12-25T20:14:07.184Z,99074.63
2022-12-25T20:16:38.111Z,99016.16
2022-12-25T20:19:06.208Z,99100.34
2022-12-25T20:21:33.539Z,99100.44
2022-12-25T20:24:00.721Z,99063.59
2022-12-25T20:26:31.922Z,99128.59
2022-12-25T20:28:59.438Z,99110.00
2022-12-25T20:31:31.115Z,99094.50
2022-12-25T20:34:04.019Z,99030.97
2022-12-25T20:36:36.339Z,99060.56
2022-12-25T20:39:09.312Z,99021.03
2022-12-25T20:41:37.324Z,99059.88
2022-12-25T20:44:06.423Z,99017.75
2022-12-25T20:46:33.419Z,99094.25
2022-12-25T20:49:02.376Z,99152.41
2022-12-25T20:51:29.381Z,99123.09
2022-12-25T20:53:57.029Z,99055.16
2022-12-25T20:56:27.107Z,99108.28
2022-12-25T20:58:59.856Z,99059.16
2022-12-25T21:01:30.097Z,99110.41
2022-12-25T21:03:58.302Z,99085.25
2022-12-25T21:06:25.612Z,99137.09
2022-12-25T21:08:52.990Z,99111.81
2022-12-25T21:11:21.349Z,99159.78
2022-12-25T21:13:48.884Z,99030.59
2022-12-25T21:16:20.418Z,99001.44
2022-12-25T21:18:49.365Z,99147.75
2022-12-25T21:21:16.401Z,99031.22
2022-12-25T21:23:43.543Z,99148.22
2022-12-25T21:26:23.460Z,99164.19
2022-12-25T21:28:55.034Z,99152.00
2022-12-25T21:31:23.726Z,99105.88
2022-12-25T21:33:54.784Z,99122.50
2022-12-25T21:36:31.769Z,99169.50
2022-12-25T21:39:07.868Z,99037.06
2022-12-25T21:41:37.673Z,99058.31
2022-12-25T21:44:05.452Z,99081.75
2022-12-25T21:46:32.675Z,99112.16
2022-12-25T21:49:00.454Z,99130.19
2022-12-25T21:51:52.297Z,99108.06
2022-12-25T21:54:23.777Z,99167.47
2022-12-25T21:56:51.192Z,99007.41
2022-12-25T21:59:21.937Z,99111.19
2022-12-25T22:01:50.854Z,99128.41
2022-12-25T22:04:20.448Z,99164.50
2022-12-25T22:07:06.799Z,99122.53
2022-12-25T22:09:33.932Z,99106.19
2022-12-25T22:12:19.798Z,99193.34
2022-12-25T22:15:02.449Z,99143.72
2022-12-25T22:17:58.190Z,99129.28
2022-12-25T22:20:38.085Z,99215.09
2022-12-25T22:23:05.308Z,99100.31
2022-12-25T22:25:32.265Z,99181.03
2022-12-25T22:28:00.222Z,99147.16
2022-12-25T22:30:28.788Z,99161.31
2022-12-25T22:32:56.123Z,99070.69
2022-12-25T22:35:23.606Z,99146.63
2022-12-25T22:37:51.034Z,99187.16
2022-12-25T22:40:19.788Z,99154.25
2022-12-25T22:42:47.038Z,99141.88
2022-12-25T22:45:14.587Z,99234.63
2022-12-25T22:47:41.925Z,99184.28
2022-12-25T22:50:11.029Z,99163.66
2022-12-25T22:52:38.681Z,99222.28
2022-12-25T22:55:07.918Z,99223.91
2022-12-25T22:57:35.174Z,99190.97
2022-12-25T23:00:02.895Z,99237.78
2022-12-25T23:02:29.949Z,99230.00
2022-12-25T23:04:57.085Z,99218.50
2022-12-25T23:07:24.041Z,99226.00
2022-12-25T23:09:52.180Z,99233.53
2022-12-25T23:12:38.043Z,99233.59
2022-12-25T23:15:05.784Z,99244.66
2022-12-25T23:17:51.196Z,99159.03
2022-12-25T23:20:36.409Z,99196.19
2022-12-25T23:23:21.751Z,99215.75
2022-12-25T23:26:07.406Z,99212.28
2022-12-25T23:28:58.858Z,99283.19
2022-12-25T23:31:39.625Z,99178.47
2022-12-25T23:34:08.094Z,99164.31
2022-12-25T23:36:35.601Z,99272.66
2022-12-25T23:39:09.745Z,99255.28
2022-12-25T23:41:39.397Z,99214.91
2022-12-25T23:44:07.700Z,99243.25
2022-12-25T23:46:34.882Z,99189.47
2022-12-25T23:49:02.025Z,99169.53
2022-12-25T23:51:29.229Z,99190.84
2022-12-25T23:53:56.516Z,99220.91
2022-12-25T23:56:23.440Z,99207.31
2022-12-25T23:58:52.000Z,99234.41
